createdAt,value
2022-08-05T00:01:35.691Z,96457.61
2022-08-05T00:04:18.201Z,96459.31
2022-08-05T00:06:47.005Z,96461.36
2022-08-05T00:09:19.576Z,96460.73
2022-08-05T00:11:59.665Z,96463.99
2022-08-05T00:14:31.462Z,96460.40
2022-08-05T00:17:01.865Z,96458.38
2022-08-05T00:19:33.362Z,96455.56
2022-08-05T00:22:04.227Z,96456.80
2022-08-05T00:24:33.085Z,96455.94
2022-08-05T00:27:04.754Z,96457.06
2022-08-05T00:29:39.125Z,96459.23
2022-08-05T00:32:12.551Z,96455.94
2022-08-05T00:35:05.391Z,96458.84
2022-08-05T00:37:50.906Z,96458.92
2022-08-05T00:40:27.187Z,96459.05
2022-08-05T00:42:59.625Z,96456.76
2022-08-05T00:45:38.426Z,96455.61
2022-08-05T00:48:09.347Z,96454.54
2022-08-05T00:50:41.417Z,96450.98
2022-08-05T00:54:01.482Z,96452.81
2022-08-05T00:56:22.745Z,96448.30
2022-08-05T00:58:51.739Z,96451.24
2022-08-05T01:01:42.025Z,96447.75
2022-08-05T01:04:11.838Z,96448.81
2022-08-05T01:06:46.657Z,96450.59
2022-08-05T01:09:19.996Z,96447.23
2022-08-05T01:11:55.783Z,96450.05
2022-08-05T01:19:46.255Z,96444.07
2022-08-05T01:22:24.298Z,96443.62
2022-08-05T01:25:39.971Z,96440.65
2022-08-05T01:28:19.260Z,96441.96
2022-08-05T01:31:11.674Z,96442.98
2022-08-05T01:33:49.312Z,96443.98
2022-08-05T01:36:28.196Z,96440.33
2022-08-05T01:39:00.945Z,96439.78
2022-08-05T01:41:37.575Z,96441.82
2022-08-05T01:44:09.790Z,96442.93
2022-08-05T01:46:42.134Z,96441.13
2022-08-05T01:49:23.789Z,96442.16
2022-08-05T01:52:00.168Z,96440.50
2022-08-05T01:55:52.904Z,96439.39
2022-08-05T01:58:40.643Z,96442.41
2022-08-05T02:01:14.820Z,96437.05
2022-08-05T02:03:53.872Z,96437.22
2022-08-05T02:06:33.294Z,96439.86
2022-08-05T02:09:07.748Z,96435.20
2022-08-05T02:12:19.093Z,96434.05
2022-08-05T02:14:53.237Z,96430.93
2022-08-05T02:21:46.810Z,96425.48
2022-08-05T02:29:26.130Z,96422.60
2022-08-05T02:32:11.764Z,96421.89
2022-08-05T02:34:55.028Z,96423.91
2022-08-05T02:37:24.575Z,96425.18
2022-08-05T02:39:54.866Z,96421.60
2022-08-05T02:42:27.733Z,96421.44
2022-08-05T02:45:01.136Z,96415.30
2022-08-05T02:47:36.502Z,96416.00
2022-08-05T02:50:23.553Z,96414.96
2022-08-05T02:52:52.843Z,96412.23
2022-08-05T02:55:52.178Z,96413.27
2022-08-05T02:58:15.378Z,96419.84
2022-08-05T03:00:46.296Z,96413.59
2022-08-05T03:03:20.646Z,96415.30
2022-08-05T03:06:54.599Z,96414.23
2022-08-05T03:09:37.697Z,96421.75
2022-08-05T03:12:40.392Z,96427.44
2022-08-05T03:15:12.338Z,96428.11
2022-08-05T03:17:41.999Z,96425.95
2022-08-05T03:20:13.614Z,96425.03
2022-08-05T03:22:44.241Z,96425.86
2022-08-05T03:25:33.751Z,96428.91
2022-08-05T03:28:11.668Z,96428.32
2022-08-05T03:30:43.564Z,96425.36
2022-08-05T03:33:12.408Z,96421.88
2022-08-05T03:35:41.854Z,96423.30
2022-08-05T03:38:14.407Z,96424.63
2022-08-05T03:40:45.434Z,96425.84
2022-08-05T03:43:59.083Z,96426.54
2022-08-05T03:46:08.313Z,96433.27
2022-08-05T03:48:36.924Z,96432.55
2022-08-05T03:52:37.864Z,96432.25
2022-08-05T03:58:11.033Z,96430.27
2022-08-05T04:00:41.958Z,96429.69
2022-08-05T04:03:28.620Z,96430.11
2022-08-05T04:05:59.148Z,96431.35
2022-08-05T04:08:34.819Z,96428.55
2022-08-05T04:11:08.630Z,96428.89
2022-08-05T04:13:51.059Z,96426.20
2022-08-05T04:16:24.357Z,96423.70
2022-08-05T04:18:54.954Z,96422.36
2022-08-05T04:22:05.842Z,96420.08
2022-08-05T04:24:19.624Z,96421.05
2022-08-05T04:26:51.475Z,96422.46
2022-08-05T04:29:19.907Z,96420.17
2022-08-05T04:31:49.631Z,96422.38
2022-08-05T04:34:32.945Z,96424.76
2022-08-05T04:37:03.374Z,96425.05
2022-08-05T04:39:35.127Z,96426.08
2022-08-05T04:42:04.187Z,96424.45
2022-08-05T04:44:32.583Z,96420.49
2022-08-05T04:47:08.801Z,96419.17
2022-08-05T04:50:02.907Z,96420.38
2022-08-05T04:52:34.123Z,96420.32
2022-08-05T04:55:14.226Z,96425.20
2022-08-05T04:57:47.727Z,96422.55
2022-08-05T05:00:16.898Z,96423.73
2022-08-05T05:02:45.420Z,96422.84
2022-08-05T05:05:25.838Z,96420.27
2022-08-05T05:08:06.883Z,96417.06
2022-08-05T05:10:55.916Z,96414.60
2022-08-05T05:13:24.973Z,96412.42
2022-08-05T05:15:56.914Z,96410.75
2022-08-05T05:18:31.394Z,96414.79
2022-08-05T05:21:04.160Z,96414.88
2022-08-05T05:27:45.682Z,96408.81
2022-08-05T05:30:30.449Z,96414.06
2022-08-05T05:33:13.970Z,96407.30
2022-08-05T05:35:47.604Z,96406.87
2022-08-05T05:38:22.415Z,96403.86
2022-08-05T05:40:58.798Z,96404.54
2022-08-05T05:43:56.449Z,96406.98
2022-08-05T05:46:16.307Z,96408.88
2022-08-05T05:48:48.365Z,96414.98
2022-08-05T05:51:25.736Z,96412.35
2022-08-05T05:53:59.843Z,96413.98
2022-08-05T05:56:34.856Z,96410.14
2022-08-05T05:59:06.735Z,96410.59
2022-08-05T06:01:39.396Z,96412.55
2022-08-05T06:04:11.287Z,96406.88
2022-08-05T06:06:47.699Z,96404.73
2022-08-05T06:09:26.641Z,96412.63
2022-08-05T06:12:06.373Z,96410.88
2022-08-05T06:14:40.143Z,96415.20
2022-08-05T06:17:22.062Z,96418.80
2022-08-05T06:19:56.947Z,96422.72
2022-08-05T06:22:33.790Z,96423.29
2022-08-05T06:25:25.105Z,96421.21
2022-08-05T06:28:12.622Z,96418.87
2022-08-05T06:30:49.614Z,96421.40
2022-08-05T06:33:19.349Z,96420.94
2022-08-05T06:36:07.556Z,96423.39
2022-08-05T06:38:38.451Z,96423.40
2022-08-05T06:41:15.401Z,96426.16
2022-08-05T06:43:58.072Z,96426.16
2022-08-05T06:46:30.086Z,96426.73
2022-08-05T06:49:01.858Z,96430.98
2022-08-05T06:51:34.125Z,96423.95
2022-08-05T06:54:05.039Z,96423.84
2022-08-05T06:56:34.876Z,96429.95
2022-08-05T06:59:09.730Z,96428.98
2022-08-05T07:01:40.529Z,96433.38
2022-08-05T07:04:09.499Z,96433.02
2022-08-05T07:06:38.469Z,96433.50
2022-08-05T07:09:06.859Z,96432.66
2022-08-05T07:11:37.053Z,96435.06
2022-08-05T07:14:29.796Z,96434.61
2022-08-05T07:17:59.877Z,96428.67
2022-08-05T07:20:31.295Z,96429.65
2022-08-05T07:22:39.529Z,96424.48
2022-08-05T07:25:23.516Z,96416.30
2022-08-05T07:28:06.008Z,96419.23
2022-08-05T07:30:39.666Z,96420.80
2022-08-05T07:33:16.519Z,96419.49
2022-08-05T07:36:05.023Z,96416.87
2022-08-05T07:38:43.684Z,96419.73
2022-08-05T07:42:13.860Z,96420.98
2022-08-05T07:44:43.776Z,96418.30
2022-08-05T07:47:16.001Z,96423.30
2022-08-05T07:49:54.731Z,96423.77
2022-08-05T07:52:23.870Z,96423.45
2022-08-05T07:54:54.708Z,96424.27
2022-08-05T07:57:52.197Z,96425.50
2022-08-05T08:00:14.628Z,96425.91
2022-08-05T08:03:13.824Z,96425.77
2022-08-05T08:05:32.872Z,96422.70
2022-08-05T08:08:12.200Z,96425.20
2022-08-05T08:10:40.964Z,96418.80
2022-08-05T08:13:22.142Z,96418.30
2022-08-05T08:16:50.038Z,96423.26
2022-08-05T08:18:49.933Z,96420.74
2022-08-05T08:21:25.402Z,96422.27
2022-08-05T08:25:15.870Z,96415.15
2022-08-05T08:27:47.823Z,96408.00
2022-08-05T08:30:37.685Z,96408.66
2022-08-05T08:33:54.512Z,96408.19
2022-08-05T08:36:38.778Z,96404.18
2022-08-05T08:39:15.667Z,96400.17
2022-08-05T08:41:50.697Z,96400.36
2022-08-05T08:45:22.625Z,96403.05
2022-08-05T08:47:47.179Z,96400.39
2022-08-05T08:50:31.198Z,96396.40
2022-08-05T08:52:57.009Z,96399.06
2022-08-05T08:56:01.952Z,96393.70
2022-08-05T08:58:17.003Z,96395.88
2022-08-05T09:01:26.793Z,96392.92
2022-08-05T09:04:02.908Z,96390.81
2022-08-05T09:06:31.711Z,96390.20
2022-08-05T09:09:02.005Z,96386.95
2022-08-05T09:11:51.276Z,96386.89
2022-08-05T09:14:56.648Z,96375.38
2022-08-05T09:18:52.278Z,96376.95
2022-08-05T09:26:21.121Z,96367.41
2022-08-05T09:33:11.247Z,96361.13
2022-08-05T09:36:00.493Z,96356.36
2022-08-05T09:38:34.861Z,96355.61
2022-08-05T09:41:07.559Z,96358.10
2022-08-05T09:47:15.941Z,96357.65
2022-08-05T09:54:00.322Z,96348.95
2022-08-05T09:56:33.558Z,96351.03
2022-08-05T09:59:08.010Z,96348.23
2022-08-05T10:01:40.723Z,96349.52
2022-08-05T10:04:16.212Z,96346.31
2022-08-05T10:06:58.853Z,96343.52
2022-08-05T10:09:29.821Z,96343.94
2022-08-05T10:12:30.184Z,96341.00
2022-08-05T10:15:20.148Z,96336.51
2022-08-05T10:22:15.701Z,96333.43
2022-08-05T10:24:58.450Z,96328.30
2022-08-05T10:28:09.230Z,96323.98
2022-08-05T10:32:46.844Z,96319.92
2022-08-05T10:33:09.362Z,96315.59
2022-08-05T10:35:58.971Z,96317.09
2022-08-05T10:38:31.009Z,96316.72
2022-08-05T10:41:26.415Z,96316.44
2022-08-05T10:44:18.443Z,96313.80
2022-08-05T10:51:03.432Z,96305.90
2022-08-05T10:53:52.872Z,96303.09
2022-08-05T11:00:48.580Z,96300.46
2022-08-05T11:03:26.919Z,96296.05
2022-08-05T11:06:16.032Z,96296.38
2022-08-05T11:13:06.740Z,96302.38
2022-08-05T11:16:00.729Z,96298.31
2022-08-05T11:18:34.229Z,96295.43
2022-08-05T11:21:11.480Z,96291.33
2022-08-05T11:32:29.311Z,96283.62
2022-08-05T11:34:58.018Z,96280.63
2022-08-05T11:41:54.435Z,96279.14
2022-08-05T11:44:53.134Z,96273.13
2022-08-05T11:47:49.832Z,96268.95
2022-08-05T11:50:19.442Z,96266.30
2022-08-05T11:52:49.479Z,96264.10
2022-08-05T11:55:18.736Z,96270.70
2022-08-05T11:58:09.532Z,96273.19
2022-08-05T12:00:38.146Z,96271.67
2022-08-05T12:03:28.930Z,96270.11
2022-08-05T12:06:06.240Z,96268.23
2022-08-05T12:12:09.076Z,96266.80
2022-08-05T12:14:43.411Z,96258.79
2022-08-05T12:18:03.265Z,96259.31
2022-08-05T12:20:25.604Z,96257.48
2022-08-05T12:27:25.525Z,96252.79
2022-08-05T12:30:00.744Z,96248.66
2022-08-05T12:32:36.179Z,96252.34
2022-08-05T12:35:08.710Z,96249.87
2022-08-05T12:37:38.206Z,96241.33
2022-08-05T12:40:10.502Z,96239.34
2022-08-05T12:42:40.140Z,96232.33
2022-08-05T12:45:49.709Z,96228.48
2022-08-05T12:48:27.697Z,96224.84
2022-08-05T12:52:10.525Z,96219.35
2022-08-05T12:54:03.836Z,96218.20
2022-08-05T12:56:35.151Z,96224.45
2022-08-05T12:59:20.844Z,96221.89
2022-08-05T13:02:09.875Z,96220.04
2022-08-05T13:04:54.612Z,96215.09
2022-08-05T13:07:54.634Z,96217.80
2022-08-05T13:10:19.907Z,96213.45
2022-08-05T13:12:57.114Z,96210.39
2022-08-05T13:15:36.064Z,96210.02
2022-08-05T13:18:20.204Z,96212.15
2022-08-05T13:20:49.961Z,96208.17
2022-08-05T13:23:22.844Z,96209.52
2022-08-05T13:25:59.257Z,96205.91
2022-08-05T13:28:29.089Z,96203.02
2022-08-05T13:31:03.374Z,96206.03
2022-08-05T13:34:24.102Z,96198.33
2022-08-05T13:36:30.836Z,96197.67
2022-08-05T13:38:59.334Z,96199.73
2022-08-05T13:41:37.501Z,96200.32
2022-08-05T13:44:06.347Z,96201.06
2022-08-05T13:47:01.984Z,96195.55
2022-08-05T13:49:23.091Z,96196.16
2022-08-05T13:51:51.936Z,96190.91
2022-08-05T13:54:24.897Z,96188.73
2022-08-05T13:56:54.059Z,96188.53
2022-08-05T13:59:25.307Z,96186.11
2022-08-05T14:02:00.013Z,96180.60
2022-08-05T14:04:51.082Z,96184.29
2022-08-05T14:07:26.176Z,96180.75
2022-08-05T14:10:18.728Z,96177.69
2022-08-05T14:12:48.841Z,96173.69
2022-08-05T14:16:04.465Z,96171.48
2022-08-05T14:18:15.092Z,96170.14
2022-08-05T14:20:48.337Z,96168.13
2022-08-05T14:23:24.515Z,96162.73
2022-08-05T14:25:58.533Z,96162.52
2022-08-05T14:28:30.054Z,96162.98
2022-08-05T14:31:01.375Z,96162.61
2022-08-05T14:33:56.310Z,96158.70
2022-08-05T14:36:21.474Z,96159.53
2022-08-05T14:38:51.360Z,96161.55
2022-08-05T14:41:19.965Z,96156.70
2022-08-05T14:43:57.704Z,96155.57
2022-08-05T14:46:31.873Z,96150.86
2022-08-05T14:49:07.191Z,96149.92
2022-08-05T14:51:42.963Z,96154.64
2022-08-05T14:54:28.717Z,96153.54
2022-08-05T14:56:59.715Z,96152.95
2022-08-05T14:59:29.742Z,96145.08
2022-08-05T15:02:15.032Z,96143.43
2022-08-05T15:04:47.798Z,96134.62
2022-08-05T15:08:12.422Z,96136.20
2022-08-05T15:10:09.702Z,96133.89
2022-08-05T15:13:00.586Z,96133.58
2022-08-05T15:15:54.993Z,96127.27
2022-08-05T15:18:17.322Z,96123.11
2022-08-05T15:20:46.233Z,96123.86
2022-08-05T15:23:15.892Z,96119.58
2022-08-05T15:25:53.399Z,96122.21
2022-08-05T15:28:27.602Z,96122.17
2022-08-05T15:30:56.490Z,96117.75
2022-08-05T15:34:04.848Z,96118.69
2022-08-05T15:36:17.009Z,96118.86
2022-08-05T15:40:41.406Z,96114.94
2022-08-05T15:41:58.138Z,96113.34
2022-08-05T15:44:30.258Z,96117.85
2022-08-05T15:47:02.053Z,96114.11
2022-08-05T15:49:53.764Z,96112.09
2022-08-05T15:52:51.722Z,96112.63
2022-08-05T15:55:15.483Z,96111.20
2022-08-05T15:57:46.078Z,96105.83
2022-08-05T16:00:30.488Z,96104.76
2022-08-05T16:03:01.116Z,96101.30
2022-08-05T16:05:30.600Z,96103.36
2022-08-05T16:07:59.068Z,96104.11
2022-08-05T16:10:28.404Z,96102.54
2022-08-05T16:12:57.630Z,96104.23
2022-08-05T16:15:32.441Z,96103.21
2022-08-05T16:18:01.130Z,96105.78
2022-08-05T16:20:32.776Z,96100.79
2022-08-05T16:23:01.139Z,96099.86
2022-08-05T16:25:33.802Z,96101.80
2022-08-05T16:28:09.704Z,96106.98
2022-08-05T16:30:38.900Z,96105.52
2022-08-05T16:33:09.905Z,96103.33
2022-08-05T16:35:42.280Z,96103.54
2022-08-05T16:38:24.363Z,96104.01
2022-08-05T16:41:00.421Z,96104.77
2022-08-05T16:43:33.137Z,96107.99
2022-08-05T16:46:12.862Z,96109.39
2022-08-05T16:48:52.740Z,96107.06
2022-08-05T16:51:21.042Z,96109.14
2022-08-05T16:54:06.269Z,96107.52
2022-08-05T16:56:41.597Z,96104.16
2022-08-05T16:59:10.651Z,96107.63
2022-08-05T17:01:54.347Z,96107.63
2022-08-05T17:04:27.439Z,96107.91
2022-08-05T17:07:01.400Z,96109.92
2022-08-05T17:09:31.059Z,96113.11
2022-08-05T17:12:22.769Z,96114.77
2022-08-05T17:15:09.317Z,96118.66
2022-08-05T17:18:02.080Z,96119.36
2022-08-05T17:20:26.747Z,96123.29
2022-08-05T17:22:55.894Z,96122.09
2022-08-05T17:25:34.100Z,96124.87
2022-08-05T17:28:09.301Z,96126.27
2022-08-05T17:30:50.233Z,96127.35
2022-08-05T17:33:19.949Z,96128.02
2022-08-05T17:36:07.830Z,96131.52
2022-08-05T17:38:36.627Z,96128.82
2022-08-05T17:41:05.084Z,96131.89
2022-08-05T17:43:46.681Z,96132.88
2022-08-05T17:46:20.553Z,96136.09
2022-08-05T17:48:49.622Z,96137.69
2022-08-05T17:51:21.431Z,96136.81
2022-08-05T17:53:50.857Z,96140.16
2022-08-05T17:56:23.264Z,96144.40
2022-08-05T17:58:56.937Z,96146.61
2022-08-05T18:01:25.320Z,96147.71
2022-08-05T18:04:04.154Z,96149.32
2022-08-05T18:06:34.161Z,96149.20
2022-08-05T18:09:03.766Z,96150.26
2022-08-05T18:11:33.565Z,96155.30
2022-08-05T18:14:07.447Z,96156.95
2022-08-05T18:16:51.001Z,96166.45
2022-08-05T18:19:23.241Z,96168.79
2022-08-05T18:22:08.349Z,96169.20
2022-08-05T18:24:40.153Z,96174.02
2022-08-05T18:27:12.325Z,96174.25
2022-08-05T18:29:53.988Z,96174.30
2022-08-05T18:32:28.375Z,96176.09
2022-08-05T18:34:58.658Z,96177.65
2022-08-05T18:37:34.867Z,96179.57
2022-08-05T18:40:34.364Z,96179.61
2022-08-05T18:42:59.554Z,96186.13
2022-08-05T18:45:41.457Z,96185.48
2022-08-05T18:48:12.030Z,96184.80
2022-08-05T18:52:05.152Z,96188.22
2022-08-05T18:53:52.876Z,96189.20
2022-08-05T18:56:21.890Z,96188.67
2022-08-05T18:58:55.007Z,96194.50
2022-08-05T19:01:33.132Z,96197.42
2022-08-05T19:04:23.977Z,96196.19
2022-08-05T19:06:53.798Z,96200.40
2022-08-05T19:09:22.843Z,96201.61
2022-08-05T19:12:00.693Z,96201.38
2022-08-05T19:14:44.768Z,96205.09
2022-08-05T19:17:19.693Z,96204.37
2022-08-05T19:19:50.550Z,96205.48
2022-08-05T19:22:19.064Z,96208.60
2022-08-05T19:25:00.879Z,96213.14
2022-08-05T19:27:31.194Z,96212.23
2022-08-05T19:30:01.345Z,96211.21
2022-08-05T19:32:31.314Z,96211.63
2022-08-05T19:34:59.994Z,96211.09
2022-08-05T19:38:04.400Z,96205.02
2022-08-05T19:40:24.295Z,96210.76
2022-08-05T19:43:04.542Z,96208.95
2022-08-05T19:45:36.346Z,96203.77
2022-08-05T19:48:06.640Z,96203.70
2022-08-05T19:50:35.369Z,96201.58
2022-08-05T19:53:10.422Z,96199.61
2022-08-05T19:56:15.227Z,96201.84
2022-08-05T19:58:29.991Z,96198.64
2022-08-05T20:00:58.930Z,96201.91
2022-08-05T20:03:27.623Z,96196.82
2022-08-05T20:06:11.630Z,96195.43
2022-08-05T20:08:47.426Z,96201.22
2022-08-05T20:11:19.605Z,96200.11
2022-08-05T20:13:58.857Z,96198.36
2022-08-05T20:16:36.821Z,96203.22
2022-08-05T20:19:05.650Z,96205.90
2022-08-05T20:21:35.177Z,96206.44
2022-08-05T20:24:07.588Z,96205.28
2022-08-05T20:26:40.094Z,96201.77
2022-08-05T20:29:26.893Z,96200.42
2022-08-05T20:31:58.279Z,96201.89
2022-08-05T20:34:28.145Z,96201.02
2022-08-05T20:36:56.469Z,96201.41
2022-08-05T20:39:24.904Z,96202.50
2022-08-05T20:42:05.808Z,96203.51
2022-08-05T20:44:37.780Z,96204.25
2022-08-05T20:47:07.583Z,96202.28
2022-08-05T20:49:39.426Z,96196.15
2022-08-05T20:52:10.780Z,96198.91
2022-08-05T20:54:58.943Z,96195.64
2022-08-05T20:57:44.107Z,96197.94
2022-08-05T21:00:34.798Z,96195.77
2022-08-05T21:03:06.832Z,96197.36
2022-08-05T21:05:53.637Z,96203.99
2022-08-05T21:08:41.565Z,96198.84
2022-08-05T21:11:12.660Z,96199.16
2022-08-05T21:13:55.603Z,96200.59
2022-08-05T21:16:29.641Z,96200.55
2022-08-05T21:19:01.388Z,96198.48
2022-08-05T21:21:39.154Z,96198.84
2022-08-05T21:24:15.410Z,96197.55
2022-08-05T21:26:53.503Z,96196.23
2022-08-05T21:29:31.488Z,96198.59
2022-08-05T21:32:02.847Z,96203.96
2022-08-05T21:34:32.952Z,96198.61
2022-08-05T21:37:05.182Z,96197.29
2022-08-05T21:39:34.487Z,96200.61
2022-08-05T21:42:03.513Z,96203.65
2022-08-05T21:44:32.295Z,96203.52
2022-08-05T21:47:01.390Z,96202.80
2022-08-05T21:50:00.276Z,96202.39
2022-08-05T21:52:27.799Z,96196.65
2022-08-05T21:55:06.329Z,96193.98
2022-08-05T21:57:42.777Z,96196.55
2022-08-05T22:00:13.035Z,96204.10
2022-08-05T22:02:42.678Z,96198.52
2022-08-05T22:05:12.756Z,96198.33
2022-08-05T22:07:58.478Z,96201.84
2022-08-05T22:10:28.533Z,96201.98
2022-08-05T22:13:07.100Z,96199.84
2022-08-05T22:16:01.660Z,96200.93
2022-08-05T22:18:26.157Z,96199.40
2022-08-05T22:20:56.947Z,96201.34
2022-08-05T22:24:03.271Z,96202.11
2022-08-05T22:26:52.960Z,96201.09
2022-08-05T22:29:26.685Z,96197.23
2022-08-05T22:31:59.570Z,96200.73
2022-08-05T22:34:33.255Z,96201.11
2022-08-05T22:37:04.003Z,96200.55
2022-08-05T22:39:34.922Z,96193.06
2022-08-05T22:42:12.278Z,96186.91
2022-08-05T22:44:53.585Z,96185.29
2022-08-05T22:47:29.517Z,96184.36
2022-08-05T22:50:21.042Z,96183.96
2022-08-05T22:52:53.261Z,96186.88
2022-08-05T22:55:23.044Z,96187.53
2022-08-05T22:57:53.509Z,96186.00
2022-08-05T23:00:23.950Z,96186.73
2022-08-05T23:02:53.836Z,96186.16
2022-08-05T23:05:23.656Z,96189.29
2022-08-05T23:07:52.971Z,96192.33
2022-08-05T23:10:23.516Z,96194.92
2022-08-05T23:12:54.660Z,96193.74
2022-08-05T23:15:35.277Z,96194.45
2022-08-05T23:18:11.390Z,96192.38
2022-08-05T23:20:40.391Z,96187.85
2022-08-05T23:23:11.781Z,96190.59
2022-08-05T23:25:53.250Z,96186.23
2022-08-05T23:28:27.776Z,96190.39
2022-08-05T23:31:07.100Z,96185.42
2022-08-05T23:34:03.994Z,96185.27
2022-08-05T23:36:39.587Z,96182.80
2022-08-05T23:39:17.331Z,96181.98
2022-08-05T23:42:01.109Z,96179.80
2022-08-05T23:44:32.458Z,96175.35
2022-08-05T23:47:02.419Z,96180.05
2022-08-05T23:49:46.910Z,96176.92
2022-08-05T23:52:30.591Z,96175.96
2022-08-05T23:55:10.913Z,96176.39
2022-08-05T23:57:39.789Z,96175.88
